Warner, NH

1:19 PM EST on December 25, 2014 (GMT -0500)
Putney Hill | Change Station
CLOSE
Current Station
Personal Weather Station
Location: Webster, NH
Elevation: 693 ft
Nearby Weather Stations

Elev 693 ft 43.29 °N, 71.73 °W | Updated 22 seconds ago

Mostly Cloudy
Mostly Cloudy
46.2 °F
Feels Like 44 °F
N
5.0
Wind Variable Wind from NNE
Gusts 10.0 mph

Today
High -- | Low -- °F
--% Chance of Precip.
Yesterday
High -- | Low -- °F
Precip. -- in
7:17 AM 4:16 PM
Waxing Crescent, 18% visible
Pressure 29.57 in
Visibility 10.0 miles
Clouds Overcast 5000 ft
Windchill 44 °F
Dew Point 35 °F
Humidity 64%
Rainfall 0.13 in
Snow Depth Not available.
UV 1 out of 12
Pollen .10 out of 12
Air Quality Not available.
Flu Activity Not available.
METAR KCON 251751Z AUTO 30015G26KT 10SM OVC050 09/M01 A2956 RMK AO2 PK WND 27031/1718 SLP011 60006 T00941006 10106 20028 53008

More Conditions Fewer Conditions

Pressure 29.57 in
Visibility 10.0 miles
Clouds Overcast 5000 ft
Windchill 44 °F
Dew Point 35 °F
Humidity 64%
Rainfall 0.13 in
Snow Depth Not available.
UV 1 out of 12
Pollen .10 out of 12
Air Quality Not available.
Flu Activity Not available.
METAR KCON 251751Z AUTO 30015G26KT 10SM OVC050 09/M01 A2956 RMK AO2 PK WND 27031/1718 SLP011 60006 T00941006 10106 20028 53008

More Conditions Fewer Conditions

10-Day Weather Forecast

Almanac

Astronomy

Dec. 25, 2014 Rise Set
Actual Time
Civil Twilight
Nautical Twilight
Astronomical Twilight
Moon
Length of Visible Light
Length of Day
Tomorrow will be .
, % of the Moon is Illuminated

Today's Extremes

State Highs State Lows

Community

WunderPhotos

Upload Photos

1,780,353 photos uploaded!

WunderBlogs® & News

Nearby

Air Quality

  Air Quality AQ Index Pollutant
Not available.

Snow Depth

Station Depth Elevation

Earthquake Activity

City Distance Mag. Time & Date
Minimum magnitude displayed is 2.5.

Coastal Water Temperatures

Place Temperature

Nearby Weather Stations